sensor_id;sensor_type;location;lat;lon;timestamp;P1;durP1;ratioP1;P2;durP2;ratioP2
44480;SDS011;30184;42.018;23.670;2022-09-09T00:01:00;20.83;;;13.95;;
44480;SDS011;30184;42.018;23.670;2022-09-09T00:04:45;19.67;;;12.88;;
44480;SDS011;30184;42.018;23.670;2022-09-09T00:06:59;19.95;;;13.32;;
44480;SDS011;30184;42.018;23.670;2022-09-09T00:09:36;17.92;;;13.57;;
44480;SDS011;30184;42.018;23.670;2022-09-09T00:12:14;20.98;;;14.10;;
44480;SDS011;30184;42.018;23.670;2022-09-09T00:14:52;21.30;;;15.10;;
44480;SDS011;30184;42.018;23.670;2022-09-09T00:17:31;21.10;;;14.35;;
44480;SDS011;30184;42.018;23.670;2022-09-09T00:20:10;31.13;;;15.15;;
44480;SDS011;30184;42.018;23.670;2022-09-09T00:22:45;19.13;;;13.75;;
44480;SDS011;30184;42.018;23.670;2022-09-09T00:28:27;21.05;;;14.27;;
44480;SDS011;30184;42.018;23.670;2022-09-09T00:30:59;19.73;;;14.20;;
44480;SDS011;30184;42.018;23.670;2022-09-09T00:33:38;20.40;;;14.73;;
44480;SDS011;30184;42.018;23.670;2022-09-09T00:36:12;26.13;;;15.13;;
44480;SDS011;30184;42.018;23.670;2022-09-09T00:38:47;18.42;;;13.40;;
44480;SDS011;30184;42.018;23.670;2022-09-09T00:41:21;17.95;;;13.63;;
44480;SDS011;30184;42.018;23.670;2022-09-09T00:43:56;23.13;;;13.68;;
44480;SDS011;30184;42.018;23.670;2022-09-09T00:46:37;21.42;;;14.00;;
44480;SDS011;30184;42.018;23.670;2022-09-09T00:49:28;19.40;;;13.23;;
44480;SDS011;30184;42.018;23.670;2022-09-09T00:52:13;19.80;;;14.05;;
44480;SDS011;30184;42.018;23.670;2022-09-09T00:54:59;20.98;;;14.50;;
44480;SDS011;30184;42.018;23.670;2022-09-09T00:57:34;24.13;;;14.38;;
44480;SDS011;30184;42.018;23.670;2022-09-09T01:00:21;21.45;;;15.10;;
44480;SDS011;30184;42.018;23.670;2022-09-09T01:02:53;20.33;;;14.70;;
44480;SDS011;30184;42.018;23.670;2022-09-09T01:05:34;24.65;;;16.10;;
44480;SDS011;30184;42.018;23.670;2022-09-09T01:08:11;20.85;;;15.32;;
44480;SDS011;30184;42.018;23.670;2022-09-09T01:10:57;17.17;;;13.93;;
44480;SDS011;30184;42.018;23.670;2022-09-09T01:13:30;22.17;;;14.95;;
44480;SDS011;30184;42.018;23.670;2022-09-09T01:16:07;19.13;;;14.23;;
44480;SDS011;30184;42.018;23.670;2022-09-09T01:18:49;20.50;;;14.00;;
44480;SDS011;30184;42.018;23.670;2022-09-09T01:21:24;20.92;;;13.70;;
44480;SDS011;30184;42.018;23.670;2022-09-09T01:24:13;18.77;;;15.20;;
44480;SDS011;30184;42.018;23.670;2022-09-09T01:27:11;23.80;;;15.27;;
44480;SDS011;30184;42.018;23.670;2022-09-09T01:29:42;22.45;;;15.25;;
44480;SDS011;30184;42.018;23.670;2022-09-09T01:35:12;21.67;;;15.38;;
44480;SDS011;30184;42.018;23.670;2022-09-09T01:37:51;27.05;;;15.35;;
44480;SDS011;30184;42.018;23.670;2022-09-09T01:40:20;23.45;;;14.60;;
44480;SDS011;30184;42.018;23.670;2022-09-09T01:42:51;21.67;;;15.18;;
44480;SDS011;30184;42.018;23.670;2022-09-09T01:45:21;19.95;;;15.07;;
44480;SDS011;30184;42.018;23.670;2022-09-09T01:47:52;21.48;;;16.33;;
44480;SDS011;30184;42.018;23.670;2022-09-09T01:50:38;20.38;;;15.40;;
44480;SDS011;30184;42.018;23.670;2022-09-09T01:53:08;18.95;;;14.43;;
44480;SDS011;30184;42.018;23.670;2022-09-09T01:55:40;22.25;;;15.80;;
44480;SDS011;30184;42.018;23.670;2022-09-09T01:58:23;24.48;;;16.33;;
44480;SDS011;30184;42.018;23.670;2022-09-09T02:01:04;25.20;;;16.80;;
44480;SDS011;30184;42.018;23.670;2022-09-09T02:03:42;25.73;;;16.10;;
44480;SDS011;30184;42.018;23.670;2022-09-09T02:06:23;19.88;;;14.57;;
44480;SDS011;30184;42.018;23.670;2022-09-09T02:09:04;18.75;;;14.30;;
44480;SDS011;30184;42.018;23.670;2022-09-09T02:11:36;21.85;;;14.20;;
44480;SDS011;30184;42.018;23.670;2022-09-09T02:14:17;21.20;;;13.90;;
44480;SDS011;30184;42.018;23.670;2022-09-09T02:16:52;23.67;;;14.57;;
44480;SDS011;30184;42.018;23.670;2022-09-09T02:19:37;20.98;;;14.63;;
44480;SDS011;30184;42.018;23.670;2022-09-09T02:22:29;21.23;;;14.02;;
44480;SDS011;30184;42.018;23.670;2022-09-09T02:25:07;22.85;;;14.93;;
44480;SDS011;30184;42.018;23.670;2022-09-09T02:27:39;21.17;;;14.23;;
44480;SDS011;30184;42.018;23.670;2022-09-09T02:30:13;29.73;;;17.45;;
44480;SDS011;30184;42.018;23.670;2022-09-09T02:32:50;37.30;;;22.75;;
44480;SDS011;30184;42.018;23.670;2022-09-09T02:35:46;32.65;;;22.45;;
44480;SDS011;30184;42.018;23.670;2022-09-09T02:38:20;25.67;;;19.33;;
44480;SDS011;30184;42.018;23.670;2022-09-09T02:41:00;22.85;;;15.30;;
44480;SDS011;30184;42.018;23.670;2022-09-09T02:43:31;30.88;;;18.75;;
44480;SDS011;30184;42.018;23.670;2022-09-09T02:46:11;29.03;;;18.43;;
44480;SDS011;30184;42.018;23.670;2022-09-09T02:48:55;33.50;;;17.27;;
44480;SDS011;30184;42.018;23.670;2022-09-09T02:51:35;22.00;;;16.85;;
44480;SDS011;30184;42.018;23.670;2022-09-09T02:54:16;21.92;;;15.32;;
44480;SDS011;30184;42.018;23.670;2022-09-09T02:56:53;23.33;;;14.20;;
44480;SDS011;30184;42.018;23.670;2022-09-09T02:59:32;25.98;;;14.50;;
44480;SDS011;30184;42.018;23.670;2022-09-09T03:02:03;19.52;;;14.20;;
44480;SDS011;30184;42.018;23.670;2022-09-09T03:04:34;20.70;;;14.90;;
44480;SDS011;30184;42.018;23.670;2022-09-09T03:07:04;24.63;;;15.55;;
44480;SDS011;30184;42.018;23.670;2022-09-09T03:09:33;28.35;;;15.63;;
44480;SDS011;30184;42.018;23.670;2022-09-09T03:12:02;23.30;;;15.73;;
44480;SDS011;30184;42.018;23.670;2022-09-09T03:14:33;23.00;;;15.13;;
44480;SDS011;30184;42.018;23.670;2022-09-09T03:17:04;22.20;;;15.40;;
44480;SDS011;30184;42.018;23.670;2022-09-09T03:19:38;24.65;;;16.00;;
44480;SDS011;30184;42.018;23.670;2022-09-09T03:22:09;21.05;;;15.57;;
44480;SDS011;30184;42.018;23.670;2022-09-09T03:24:42;22.52;;;15.15;;
44480;SDS011;30184;42.018;23.670;2022-09-09T03:27:11;24.45;;;16.27;;
44480;SDS011;30184;42.018;23.670;2022-09-09T03:29:41;24.73;;;16.20;;
44480;SDS011;30184;42.018;23.670;2022-09-09T03:32:15;22.33;;;16.70;;
44480;SDS011;30184;42.018;23.670;2022-09-09T03:34:45;21.92;;;15.93;;
44480;SDS011;30184;42.018;23.670;2022-09-09T03:37:15;19.50;;;15.43;;
44480;SDS011;30184;42.018;23.670;2022-09-09T03:39:45;22.92;;;14.60;;
44480;SDS011;30184;42.018;23.670;2022-09-09T03:42:15;26.33;;;14.77;;
44480;SDS011;30184;42.018;23.670;2022-09-09T03:44:49;22.33;;;15.43;;
44480;SDS011;30184;42.018;23.670;2022-09-09T03:47:24;23.30;;;15.43;;
44480;SDS011;30184;42.018;23.670;2022-09-09T03:50:00;32.88;;;15.35;;
44480;SDS011;30184;42.018;23.670;2022-09-09T03:52:34;24.65;;;15.98;;
44480;SDS011;30184;42.018;23.670;2022-09-09T03:55:07;24.45;;;14.20;;
44480;SDS011;30184;42.018;23.670;2022-09-09T03:57:37;24.25;;;13.30;;
44480;SDS011;30184;42.018;23.670;2022-09-09T04:00:09;26.85;;;13.77;;
44480;SDS011;30184;42.018;23.670;2022-09-09T04:02:52;23.33;;;14.02;;
44480;SDS011;30184;42.018;23.670;2022-09-09T04:05:23;23.02;;;14.52;;
44480;SDS011;30184;42.018;23.670;2022-09-09T04:07:52;22.55;;;14.30;;
44480;SDS011;30184;42.018;23.670;2022-09-09T04:10:21;23.48;;;14.68;;
44480;SDS011;30184;42.018;23.670;2022-09-09T04:12:52;23.55;;;15.73;;
44480;SDS011;30184;42.018;23.670;2022-09-09T04:15:21;25.17;;;15.30;;
44480;SDS011;30184;42.018;23.670;2022-09-09T04:17:52;22.48;;;15.63;;
44480;SDS011;30184;42.018;23.670;2022-09-09T04:20:23;22.48;;;14.40;;
44480;SDS011;30184;42.018;23.670;2022-09-09T04:22:53;25.58;;;13.43;;
44480;SDS011;30184;42.018;23.670;2022-09-09T04:25:23;21.27;;;13.02;;
44480;SDS011;30184;42.018;23.670;2022-09-09T04:27:53;25.25;;;14.70;;
44480;SDS011;30184;42.018;23.670;2022-09-09T04:30:23;21.23;;;14.43;;
44480;SDS011;30184;42.018;23.670;2022-09-09T04:32:56;25.40;;;14.80;;
44480;SDS011;30184;42.018;23.670;2022-09-09T04:35:26;21.55;;;14.68;;
44480;SDS011;30184;42.018;23.670;2022-09-09T04:37:55;24.17;;;14.52;;
44480;SDS011;30184;42.018;23.670;2022-09-09T04:40:31;24.70;;;14.88;;
44480;SDS011;30184;42.018;23.670;2022-09-09T04:43:01;25.98;;;14.35;;
44480;SDS011;30184;42.018;23.670;2022-09-09T04:45:32;27.40;;;18.08;;
44480;SDS011;30184;42.018;23.670;2022-09-09T04:48:03;30.83;;;21.20;;
44480;SDS011;30184;42.018;23.670;2022-09-09T04:50:32;28.17;;;19.73;;
44480;SDS011;30184;42.018;23.670;2022-09-09T04:53:02;26.20;;;17.17;;
44480;SDS011;30184;42.018;23.670;2022-09-09T04:55:34;23.30;;;15.05;;
44480;SDS011;30184;42.018;23.670;2022-09-09T04:58:03;22.52;;;14.68;;
44480;SDS011;30184;42.018;23.670;2022-09-09T05:00:34;26.65;;;15.95;;
44480;SDS011;30184;42.018;23.670;2022-09-09T05:03:08;26.60;;;17.50;;
44480;SDS011;30184;42.018;23.670;2022-09-09T05:05:37;27.10;;;17.60;;
44480;SDS011;30184;42.018;23.670;2022-09-09T05:08:07;27.27;;;19.02;;
44480;SDS011;30184;42.018;23.670;2022-09-09T05:10:38;27.83;;;19.42;;
44480;SDS011;30184;42.018;23.670;2022-09-09T05:13:09;27.23;;;17.90;;
44480;SDS011;30184;42.018;23.670;2022-09-09T05:15:38;35.40;;;19.00;;
44480;SDS011;30184;42.018;23.670;2022-09-09T05:18:09;35.60;;;20.17;;
44480;SDS011;30184;42.018;23.670;2022-09-09T05:20:38;29.35;;;17.13;;
44480;SDS011;30184;42.018;23.670;2022-09-09T05:23:31;26.83;;;16.27;;
44480;SDS011;30184;42.018;23.670;2022-09-09T05:26:01;26.30;;;18.00;;
44480;SDS011;30184;42.018;23.670;2022-09-09T05:28:33;34.80;;;21.13;;
44480;SDS011;30184;42.018;23.670;2022-09-09T05:31:04;28.90;;;16.67;;
44480;SDS011;30184;42.018;23.670;2022-09-09T05:33:37;21.38;;;15.30;;
44480;SDS011;30184;42.018;23.670;2022-09-09T05:36:09;20.58;;;14.90;;
44480;SDS011;30184;42.018;23.670;2022-09-09T05:38:41;25.63;;;15.00;;
44480;SDS011;30184;42.018;23.670;2022-09-09T05:41:11;31.02;;;15.52;;
44480;SDS011;30184;42.018;23.670;2022-09-09T05:43:43;18.85;;;13.50;;
44480;SDS011;30184;42.018;23.670;2022-09-09T05:46:18;19.10;;;14.10;;
44480;SDS011;30184;42.018;23.670;2022-09-09T05:48:53;22.52;;;13.65;;
44480;SDS011;30184;42.018;23.670;2022-09-09T05:51:31;22.88;;;12.65;;
44480;SDS011;30184;42.018;23.670;2022-09-09T05:54:08;16.33;;;11.98;;
44480;SDS011;30184;42.018;23.670;2022-09-09T05:56:41;23.05;;;14.20;;
44480;SDS011;30184;42.018;23.670;2022-09-09T05:59:13;18.00;;;12.77;;
44480;SDS011;30184;42.018;23.670;2022-09-09T06:01:42;15.57;;;12.05;;
44480;SDS011;30184;42.018;23.670;2022-09-09T06:04:40;15.88;;;11.77;;
44480;SDS011;30184;42.018;23.670;2022-09-09T06:07:11;16.25;;;10.65;;
44480;SDS011;30184;42.018;23.670;2022-09-09T06:09:42;16.75;;;11.00;;
44480;SDS011;30184;42.018;23.670;2022-09-09T06:12:12;15.52;;;10.68;;
44480;SDS011;30184;42.018;23.670;2022-09-09T06:14:41;16.42;;;10.88;;
44480;SDS011;30184;42.018;23.670;2022-09-09T06:17:13;19.58;;;11.00;;
44480;SDS011;30184;42.018;23.670;2022-09-09T06:19:44;18.92;;;12.65;;
44480;SDS011;30184;42.018;23.670;2022-09-09T06:22:13;17.98;;;11.60;;
44480;SDS011;30184;42.018;23.670;2022-09-09T06:24:43;20.73;;;12.27;;
44480;SDS011;30184;42.018;23.670;2022-09-09T06:27:12;15.02;;;11.00;;
44480;SDS011;30184;42.018;23.670;2022-09-09T06:29:42;25.80;;;13.23;;
44480;SDS011;30184;42.018;23.670;2022-09-09T06:32:12;16.67;;;11.68;;
44480;SDS011;30184;42.018;23.670;2022-09-09T06:34:41;15.82;;;11.43;;
44480;SDS011;30184;42.018;23.670;2022-09-09T06:37:14;21.65;;;12.55;;
44480;SDS011;30184;42.018;23.670;2022-09-09T06:39:47;19.48;;;10.90;;
44480;SDS011;30184;42.018;23.670;2022-09-09T06:42:18;15.65;;;8.13;;
44480;SDS011;30184;42.018;23.670;2022-09-09T06:47:43;19.63;;;11.88;;
44480;SDS011;30184;42.018;23.670;2022-09-09T06:50:14;18.80;;;13.25;;
44480;SDS011;30184;42.018;23.670;2022-09-09T06:52:47;27.75;;;13.02;;
44480;SDS011;30184;42.018;23.670;2022-09-09T06:55:17;23.67;;;13.55;;
44480;SDS011;30184;42.018;23.670;2022-09-09T06:57:48;23.60;;;12.00;;
44480;SDS011;30184;42.018;23.670;2022-09-09T07:00:22;17.52;;;10.48;;
44480;SDS011;30184;42.018;23.670;2022-09-09T07:02:51;13.50;;;8.32;;
44480;SDS011;30184;42.018;23.670;2022-09-09T07:05:22;68.50;;;21.95;;
44480;SDS011;30184;42.018;23.670;2022-09-09T07:07:55;22.27;;;9.60;;
44480;SDS011;30184;42.018;23.670;2022-09-09T07:10:24;15.30;;;9.68;;
44480;SDS011;30184;42.018;23.670;2022-09-09T07:12:55;17.10;;;9.55;;
44480;SDS011;30184;42.018;23.670;2022-09-09T07:15:25;27.38;;;11.35;;
44480;SDS011;30184;42.018;23.670;2022-09-09T07:17:54;39.38;;;12.07;;
44480;SDS011;30184;42.018;23.670;2022-09-09T07:20:24;30.17;;;14.57;;
44480;SDS011;30184;42.018;23.670;2022-09-09T07:22:55;24.13;;;14.43;;
44480;SDS011;30184;42.018;23.670;2022-09-09T07:25:26;16.95;;;10.10;;
44480;SDS011;30184;42.018;23.670;2022-09-09T07:27:57;18.40;;;10.82;;
44480;SDS011;30184;42.018;23.670;2022-09-09T07:30:27;48.95;;;11.57;;
44480;SDS011;30184;42.018;23.670;2022-09-09T07:32:57;12.38;;;8.95;;
44480;SDS011;30184;42.018;23.670;2022-09-09T07:35:27;14.95;;;10.05;;
44480;SDS011;30184;42.018;23.670;2022-09-09T07:38:00;15.35;;;9.02;;
44480;SDS011;30184;42.018;23.670;2022-09-09T07:40:30;15.23;;;9.40;;
44480;SDS011;30184;42.018;23.670;2022-09-09T07:43:00;24.17;;;10.35;;
44480;SDS011;30184;42.018;23.670;2022-09-09T07:45:30;30.75;;;10.55;;
44480;SDS011;30184;42.018;23.670;2022-09-09T07:48:02;15.07;;;10.23;;
44480;SDS011;30184;42.018;23.670;2022-09-09T07:50:33;13.15;;;8.68;;
44480;SDS011;30184;42.018;23.670;2022-09-09T07:53:05;21.13;;;9.77;;
44480;SDS011;30184;42.018;23.670;2022-09-09T07:55:38;15.68;;;8.90;;
44480;SDS011;30184;42.018;23.670;2022-09-09T07:58:08;29.50;;;9.90;;
44480;SDS011;30184;42.018;23.670;2022-09-09T08:01:32;13.75;;;8.55;;
44480;SDS011;30184;42.018;23.670;2022-09-09T08:04:09;11.50;;;8.93;;
44480;SDS011;30184;42.018;23.670;2022-09-09T08:06:44;14.80;;;9.00;;
44480;SDS011;30184;42.018;23.670;2022-09-09T08:09:19;15.90;;;8.40;;
44480;SDS011;30184;42.018;23.670;2022-09-09T08:11:49;20.10;;;8.43;;
44480;SDS011;30184;42.018;23.670;2022-09-09T08:14:18;17.13;;;8.05;;
44480;SDS011;30184;42.018;23.670;2022-09-09T08:16:49;169.25;;;26.27;;
44480;SDS011;30184;42.018;23.670;2022-09-09T08:19:22;8.73;;;7.00;;
44480;SDS011;30184;42.018;23.670;2022-09-09T08:21:53;20.02;;;8.40;;
44480;SDS011;30184;42.018;23.670;2022-09-09T08:24:24;15.10;;;6.47;;
44480;SDS011;30184;42.018;23.670;2022-09-09T08:26:53;270.52;;;29.05;;
44480;SDS011;30184;42.018;23.670;2022-09-09T08:29:24;106.20;;;14.98;;
44480;SDS011;30184;42.018;23.670;2022-09-09T08:31:56;134.40;;;18.63;;
44480;SDS011;30184;42.018;23.670;2022-09-09T08:34:28;10.73;;;6.93;;
44480;SDS011;30184;42.018;23.670;2022-09-09T08:37:02;54.97;;;10.30;;
44480;SDS011;30184;42.018;23.670;2022-09-09T08:39:38;41.28;;;8.45;;
44480;SDS011;30184;42.018;23.670;2022-09-09T08:42:19;37.33;;;8.88;;
44480;SDS011;30184;42.018;23.670;2022-09-09T08:45:05;14.40;;;7.35;;
44480;SDS011;30184;42.018;23.670;2022-09-09T08:47:46;11.25;;;6.40;;
44480;SDS011;30184;42.018;23.670;2022-09-09T08:50:25;12.93;;;7.07;;
44480;SDS011;30184;42.018;23.670;2022-09-09T08:53:04;9.15;;;6.63;;
44480;SDS011;30184;42.018;23.670;2022-09-09T08:55:54;11.05;;;6.15;;
44480;SDS011;30184;42.018;23.670;2022-09-09T08:58:41;12.20;;;6.40;;
44480;SDS011;30184;42.018;23.670;2022-09-09T09:01:20;19.77;;;7.40;;
44480;SDS011;30184;42.018;23.670;2022-09-09T09:04:17;14.60;;;6.65;;
44480;SDS011;30184;42.018;23.670;2022-09-09T09:07:01;15.80;;;7.88;;
44480;SDS011;30184;42.018;23.670;2022-09-09T09:09:46;10.55;;;6.88;;
44480;SDS011;30184;42.018;23.670;2022-09-09T09:12:39;11.07;;;6.43;;
44480;SDS011;30184;42.018;23.670;2022-09-09T09:15:14;12.82;;;7.32;;
44480;SDS011;30184;42.018;23.670;2022-09-09T09:17:48;13.90;;;7.38;;
44480;SDS011;30184;42.018;23.670;2022-09-09T09:20:20;18.23;;;6.72;;
44480;SDS011;30184;42.018;23.670;2022-09-09T09:36:57;15.63;;;7.03;;
44480;SDS011;30184;42.018;23.670;2022-09-09T09:39:33;18.92;;;7.47;;
44480;SDS011;30184;42.018;23.670;2022-09-09T09:42:25;13.95;;;6.80;;
44480;SDS011;30184;42.018;23.670;2022-09-09T09:44:56;9.70;;;7.00;;
44480;SDS011;30184;42.018;23.670;2022-09-09T09:47:37;11.25;;;7.13;;
44480;SDS011;30184;42.018;23.670;2022-09-09T09:50:18;15.60;;;7.18;;
44480;SDS011;30184;42.018;23.670;2022-09-09T09:52:58;9.45;;;5.95;;
44480;SDS011;30184;42.018;23.670;2022-09-09T10:07:22;13.07;;;7.60;;
44480;SDS011;30184;42.018;23.670;2022-09-09T10:09:52;16.90;;;6.32;;
44480;SDS011;30184;42.018;23.670;2022-09-09T10:12:37;23.02;;;7.07;;
44480;SDS011;30184;42.018;23.670;2022-09-09T10:30:03;12.90;;;6.30;;
44480;SDS011;30184;42.018;23.670;2022-09-09T10:32:41;8.02;;;5.82;;
44480;SDS011;30184;42.018;23.670;2022-09-09T10:35:22;13.77;;;6.65;;
44480;SDS011;30184;42.018;23.670;2022-09-09T10:38:01;10.55;;;5.68;;
44480;SDS011;30184;42.018;23.670;2022-09-09T11:04:50;60.23;;;10.47;;
44480;SDS011;30184;42.018;23.670;2022-09-09T11:07:25;20.85;;;6.10;;
44480;SDS011;30184;42.018;23.670;2022-09-09T11:10:02;15.15;;;5.70;;
44480;SDS011;30184;42.018;23.670;2022-09-09T11:12:35;15.90;;;5.45;;
44480;SDS011;30184;42.018;23.670;2022-09-09T11:15:13;13.20;;;5.78;;
44480;SDS011;30184;42.018;23.670;2022-09-09T11:17:50;19.90;;;5.43;;
44480;SDS011;30184;42.018;23.670;2022-09-09T11:20:25;15.30;;;5.88;;
44480;SDS011;30184;42.018;23.670;2022-09-09T11:22:56;31.60;;;6.57;;
44480;SDS011;30184;42.018;23.670;2022-09-09T11:25:34;13.73;;;5.45;;
44480;SDS011;30184;42.018;23.670;2022-09-09T11:28:10;26.00;;;5.97;;
44480;SDS011;30184;42.018;23.670;2022-09-09T11:30:58;13.05;;;5.57;;
44480;SDS011;30184;42.018;23.670;2022-09-09T11:33:53;26.25;;;7.25;;
44480;SDS011;30184;42.018;23.670;2022-09-09T11:37:26;10.32;;;6.70;;
44480;SDS011;30184;42.018;23.670;2022-09-09T11:40:26;14.23;;;5.63;;
44480;SDS011;30184;42.018;23.670;2022-09-09T11:43:02;8.65;;;5.35;;
44480;SDS011;30184;42.018;23.670;2022-09-09T11:45:33;19.02;;;6.38;;
44480;SDS011;30184;42.018;23.670;2022-09-09T11:48:04;18.40;;;6.43;;
44480;SDS011;30184;42.018;23.670;2022-09-09T11:50:35;14.43;;;5.22;;
44480;SDS011;30184;42.018;23.670;2022-09-09T11:53:21;18.20;;;5.60;;
44480;SDS011;30184;42.018;23.670;2022-09-09T11:56:01;15.38;;;5.97;;
44480;SDS011;30184;42.018;23.670;2022-09-09T11:58:39;205.68;;;21.33;;
44480;SDS011;30184;42.018;23.670;2022-09-09T12:01:13;32.40;;;5.43;;
44480;SDS011;30184;42.018;23.670;2022-09-09T12:03:45;26.35;;;6.45;;
44480;SDS011;30184;42.018;23.670;2022-09-09T12:09:25;125.22;;;18.83;;
44480;SDS011;30184;42.018;23.670;2022-09-09T12:12:07;28.35;;;6.65;;
44480;SDS011;30184;42.018;23.670;2022-09-09T12:14:56;48.30;;;7.03;;
44480;SDS011;30184;42.018;23.670;2022-09-09T12:17:36;18.13;;;5.35;;
44480;SDS011;30184;42.018;23.670;2022-09-09T12:20:12;23.92;;;5.88;;
44480;SDS011;30184;42.018;23.670;2022-09-09T12:22:51;38.63;;;6.13;;
44480;SDS011;30184;42.018;23.670;2022-09-09T12:25:45;82.28;;;6.57;;
44480;SDS011;30184;42.018;23.670;2022-09-09T12:28:21;65.90;;;8.35;;
44480;SDS011;30184;42.018;23.670;2022-09-09T12:30:56;19.67;;;6.10;;
44480;SDS011;30184;42.018;23.670;2022-09-09T12:33:34;38.40;;;6.50;;
44480;SDS011;30184;42.018;23.670;2022-09-09T12:36:06;27.52;;;6.28;;
44480;SDS011;30184;42.018;23.670;2022-09-09T12:38:41;25.40;;;6.35;;
44480;SDS011;30184;42.018;23.670;2022-09-09T12:41:20;180.35;;;16.00;;
44480;SDS011;30184;42.018;23.670;2022-09-09T12:43:51;74.68;;;8.10;;
44480;SDS011;30184;42.018;23.670;2022-09-09T12:46:33;16.27;;;6.05;;
44480;SDS011;30184;42.018;23.670;2022-09-09T12:49:18;15.18;;;5.78;;
44480;SDS011;30184;42.018;23.670;2022-09-09T12:51:56;14.82;;;5.22;;
44480;SDS011;30184;42.018;23.670;2022-09-09T12:54:26;30.50;;;5.97;;
44480;SDS011;30184;42.018;23.670;2022-09-09T12:56:56;23.40;;;5.93;;
44480;SDS011;30184;42.018;23.670;2022-09-09T12:59:27;12.98;;;5.53;;
44480;SDS011;30184;42.018;23.670;2022-09-09T13:02:11;22.77;;;5.00;;
44480;SDS011;30184;42.018;23.670;2022-09-09T13:04:46;16.83;;;5.60;;
44480;SDS011;30184;42.018;23.670;2022-09-09T13:07:15;24.08;;;5.82;;
44480;SDS011;30184;42.018;23.670;2022-09-09T13:09:46;20.77;;;7.07;;
44480;SDS011;30184;42.018;23.670;2022-09-09T13:12:18;81.93;;;9.85;;
44480;SDS011;30184;42.018;23.670;2022-09-09T13:14:50;14.68;;;5.53;;
44480;SDS011;30184;42.018;23.670;2022-09-09T13:17:24;52.92;;;8.48;;
44480;SDS011;30184;42.018;23.670;2022-09-09T13:19:56;16.17;;;5.75;;
44480;SDS011;30184;42.018;23.670;2022-09-09T13:22:29;26.40;;;6.10;;
44480;SDS011;30184;42.018;23.670;2022-09-09T13:25:01;19.33;;;6.05;;
44480;SDS011;30184;42.018;23.670;2022-09-09T13:27:35;25.00;;;6.60;;
44480;SDS011;30184;42.018;23.670;2022-09-09T13:30:23;24.35;;;6.28;;
44480;SDS011;30184;42.018;23.670;2022-09-09T13:33:05;31.50;;;7.27;;
44480;SDS011;30184;42.018;23.670;2022-09-09T13:35:48;13.13;;;4.75;;
44480;SDS011;30184;42.018;23.670;2022-09-09T13:38:18;16.10;;;4.90;;
44480;SDS011;30184;42.018;23.670;2022-09-09T13:40:52;88.28;;;13.25;;
44480;SDS011;30184;42.018;23.670;2022-09-09T13:43:26;24.43;;;6.17;;
44480;SDS011;30184;42.018;23.670;2022-09-09T13:45:56;18.02;;;6.32;;
44480;SDS011;30184;42.018;23.670;2022-09-09T13:48:27;31.15;;;7.90;;
44480;SDS011;30184;42.018;23.670;2022-09-09T13:50:58;18.80;;;6.70;;
44480;SDS011;30184;42.018;23.670;2022-09-09T13:53:29;19.58;;;6.05;;
44480;SDS011;30184;42.018;23.670;2022-09-09T13:55:57;18.15;;;5.95;;
44480;SDS011;30184;42.018;23.670;2022-09-09T13:58:29;18.20;;;4.53;;
44480;SDS011;30184;42.018;23.670;2022-09-09T14:00:59;11.35;;;5.05;;
44480;SDS011;30184;42.018;23.670;2022-09-09T14:03:28;18.05;;;5.28;;
44480;SDS011;30184;42.018;23.670;2022-09-09T14:06:11;18.63;;;5.15;;
44480;SDS011;30184;42.018;23.670;2022-09-09T14:08:40;16.20;;;5.43;;
44480;SDS011;30184;42.018;23.670;2022-09-09T14:11:10;33.95;;;7.95;;
44480;SDS011;30184;42.018;23.670;2022-09-09T14:13:45;22.23;;;7.50;;
44480;SDS011;30184;42.018;23.670;2022-09-09T14:16:19;14.38;;;4.22;;
44480;SDS011;30184;42.018;23.670;2022-09-09T14:18:48;17.63;;;5.35;;
44480;SDS011;30184;42.018;23.670;2022-09-09T14:21:17;17.35;;;6.32;;
44480;SDS011;30184;42.018;23.670;2022-09-09T14:23:47;21.05;;;5.82;;
44480;SDS011;30184;42.018;23.670;2022-09-09T14:26:17;17.90;;;6.78;;
44480;SDS011;30184;42.018;23.670;2022-09-09T14:28:49;16.08;;;6.03;;
44480;SDS011;30184;42.018;23.670;2022-09-09T14:31:21;19.25;;;6.22;;
44480;SDS011;30184;42.018;23.670;2022-09-09T14:33:51;23.35;;;6.38;;
44480;SDS011;30184;42.018;23.670;2022-09-09T14:36:20;14.60;;;5.82;;
44480;SDS011;30184;42.018;23.670;2022-09-09T14:38:50;31.55;;;8.20;;
44480;SDS011;30184;42.018;23.670;2022-09-09T14:41:19;20.42;;;6.53;;
44480;SDS011;30184;42.018;23.670;2022-09-09T14:43:51;17.33;;;5.60;;
44480;SDS011;30184;42.018;23.670;2022-09-09T14:46:21;19.45;;;6.70;;
44480;SDS011;30184;42.018;23.670;2022-09-09T14:48:50;17.00;;;6.00;;
44480;SDS011;30184;42.018;23.670;2022-09-09T14:51:21;27.17;;;5.35;;
44480;SDS011;30184;42.018;23.670;2022-09-09T14:53:52;13.85;;;6.07;;
44480;SDS011;30184;42.018;23.670;2022-09-09T14:56:23;15.35;;;5.45;;
44480;SDS011;30184;42.018;23.670;2022-09-09T14:58:55;17.63;;;6.00;;
44480;SDS011;30184;42.018;23.670;2022-09-09T15:01:28;26.98;;;6.75;;
44480;SDS011;30184;42.018;23.670;2022-09-09T15:03:59;22.13;;;6.28;;
44480;SDS011;30184;42.018;23.670;2022-09-09T15:06:31;13.77;;;5.50;;
44480;SDS011;30184;42.018;23.670;2022-09-09T15:09:02;12.05;;;5.03;;
44480;SDS011;30184;42.018;23.670;2022-09-09T15:11:34;18.08;;;6.40;;
44480;SDS011;30184;42.018;23.670;2022-09-09T15:14:07;18.35;;;5.75;;
44480;SDS011;30184;42.018;23.670;2022-09-09T15:16:39;17.08;;;6.25;;
44480;SDS011;30184;42.018;23.670;2022-09-09T15:19:08;12.63;;;6.65;;
44480;SDS011;30184;42.018;23.670;2022-09-09T15:21:37;20.02;;;7.65;;
44480;SDS011;30184;42.018;23.670;2022-09-09T15:24:07;18.65;;;7.85;;
44480;SDS011;30184;42.018;23.670;2022-09-09T15:26:36;14.50;;;6.97;;
44480;SDS011;30184;42.018;23.670;2022-09-09T15:29:08;21.30;;;6.88;;
44480;SDS011;30184;42.018;23.670;2022-09-09T15:31:37;22.13;;;6.97;;
44480;SDS011;30184;42.018;23.670;2022-09-09T15:34:06;18.05;;;7.88;;
44480;SDS011;30184;42.018;23.670;2022-09-09T15:36:36;17.92;;;7.80;;
44480;SDS011;30184;42.018;23.670;2022-09-09T15:39:08;21.10;;;9.43;;
44480;SDS011;30184;42.018;23.670;2022-09-09T15:41:40;13.88;;;7.80;;
44480;SDS011;30184;42.018;23.670;2022-09-09T15:44:10;12.68;;;7.35;;
44480;SDS011;30184;42.018;23.670;2022-09-09T15:46:40;19.75;;;8.60;;
44480;SDS011;30184;42.018;23.670;2022-09-09T15:49:11;18.92;;;8.65;;
44480;SDS011;30184;42.018;23.670;2022-09-09T15:51:42;20.67;;;8.20;;
44480;SDS011;30184;42.018;23.670;2022-09-09T15:54:13;16.50;;;7.75;;
44480;SDS011;30184;42.018;23.670;2022-09-09T15:56:45;17.17;;;7.47;;
44480;SDS011;30184;42.018;23.670;2022-09-09T15:59:19;18.77;;;10.40;;
44480;SDS011;30184;42.018;23.670;2022-09-09T16:01:48;69.13;;;36.15;;
44480;SDS011;30184;42.018;23.670;2022-09-09T16:04:18;56.50;;;31.48;;
44480;SDS011;30184;42.018;23.670;2022-09-09T16:06:50;25.77;;;13.65;;
44480;SDS011;30184;42.018;23.670;2022-09-09T16:09:20;20.55;;;9.65;;
44480;SDS011;30184;42.018;23.670;2022-09-09T16:11:49;23.35;;;10.48;;
44480;SDS011;30184;42.018;23.670;2022-09-09T16:14:20;20.83;;;9.13;;